sensor_id;sensor_type;location;lat;lon;timestamp;temperature;humidity
15235;DHT22;7720;51.926;4.488;2023-07-31T04:58:46;17.10;99.90
15235;DHT22;7720;51.926;4.488;2023-07-31T05:03:49;17.20;99.90
15235;DHT22;7720;51.926;4.488;2023-07-31T05:08:52;17.30;99.90
15235;DHT22;7720;51.926;4.488;2023-07-31T05:13:57;17.30;99.90
15235;DHT22;7720;51.926;4.488;2023-07-31T05:19:01;17.40;99.90
15235;DHT22;7720;51.926;4.488;2023-07-31T05:24:05;17.40;99.90
15235;DHT22;7720;51.926;4.488;2023-07-31T05:29:09;17.30;99.90
15235;DHT22;7720;51.926;4.488;2023-07-31T05:34:12;17.40;99.90
15235;DHT22;7720;51.926;4.488;2023-07-31T05:39:16;17.70;99.90
15235;DHT22;7720;51.926;4.488;2023-07-31T05:44:22;17.70;99.90
15235;DHT22;7720;51.926;4.488;2023-07-31T05:49:26;17.60;99.90
15235;DHT22;7720;51.926;4.488;2023-07-31T05:54:29;17.80;99.90
15235;DHT22;7720;51.926;4.488;2023-07-31T05:59:34;17.80;99.90
15235;DHT22;7720;51.926;4.488;2023-07-31T06:04:37;17.90;99.90
15235;DHT22;7720;51.926;4.488;2023-07-31T06:09:41;17.90;99.90
15235;DHT22;7720;51.926;4.488;2023-07-31T06:14:45;17.90;99.90
15235;DHT22;7720;51.926;4.488;2023-07-31T06:19:49;17.90;99.90
15235;DHT22;7720;51.926;4.488;2023-07-31T06:24:52;18.00;99.90
15235;DHT22;7720;51.926;4.488;2023-07-31T06:29:57;18.00;99.90
15235;DHT22;7720;51.926;4.488;2023-07-31T06:35:00;18.20;99.90
15235;DHT22;7720;51.926;4.488;2023-07-31T06:40:05;18.10;99.90
15235;DHT22;7720;51.926;4.488;2023-07-31T06:45:11;18.20;99.90
15235;DHT22;7720;51.926;4.488;2023-07-31T06:50:14;18.20;99.90
15235;DHT22;7720;51.926;4.488;2023-07-31T06:55:20;18.20;99.90
15235;DHT22;7720;51.926;4.488;2023-07-31T07:00:25;18.10;99.90
15235;DHT22;7720;51.926;4.488;2023-07-31T07:05:28;18.30;99.90
15235;DHT22;7720;51.926;4.488;2023-07-31T07:10:31;18.30;99.90
15235;DHT22;7720;51.926;4.488;2023-07-31T07:15:36;18.20;99.90
15235;DHT22;7720;51.926;4.488;2023-07-31T07:20:40;18.30;99.90
15235;DHT22;7720;51.926;4.488;2023-07-31T07:25:44;18.20;99.90
15235;DHT22;7720;51.926;4.488;2023-07-31T07:30:52;18.40;99.90
15235;DHT22;7720;51.926;4.488;2023-07-31T07:36:00;18.10;99.90
15235;DHT22;7720;51.926;4.488;2023-07-31T07:41:03;18.20;99.90
15235;DHT22;7720;51.926;4.488;2023-07-31T07:46:08;18.10;99.90
15235;DHT22;7720;51.926;4.488;2023-07-31T07:51:12;18.20;99.90
15235;DHT22;7720;51.926;4.488;2023-07-31T07:56:15;18.20;99.90
15235;DHT22;7720;51.926;4.488;2023-07-31T08:01:20;18.30;99.90
15235;DHT22;7720;51.926;4.488;2023-07-31T08:06:24;18.30;99.90
15235;DHT22;7720;51.926;4.488;2023-07-31T08:11:27;18.10;99.90
15235;DHT22;7720;51.926;4.488;2023-07-31T08:16:32;18.20;99.90
15235;DHT22;7720;51.926;4.488;2023-07-31T08:21:35;18.10;99.90
15235;DHT22;7720;51.926;4.488;2023-07-31T08:26:38;18.10;99.90
15235;DHT22;7720;51.926;4.488;2023-07-31T08:31:44;18.10;99.90
15235;DHT22;7720;51.926;4.488;2023-07-31T08:36:47;18.10;99.90
15235;DHT22;7720;51.926;4.488;2023-07-31T08:41:51;18.20;99.90
15235;DHT22;7720;51.926;4.488;2023-07-31T08:46:56;19.20;99.90
15235;DHT22;7720;51.926;4.488;2023-07-31T08:51:59;18.10;99.90
15235;DHT22;7720;51.926;4.488;2023-07-31T08:57:04;18.20;99.90
15235;DHT22;7720;51.926;4.488;2023-07-31T09:02:09;18.20;99.90
15235;DHT22;7720;51.926;4.488;2023-07-31T09:07:14;18.30;99.90
15235;DHT22;7720;51.926;4.488;2023-07-31T09:12:18;18.20;99.90
15235;DHT22;7720;51.926;4.488;2023-07-31T09:17:30;18.30;99.90
15235;DHT22;7720;51.926;4.488;2023-07-31T09:22:34;18.40;99.90
15235;DHT22;7720;51.926;4.488;2023-07-31T09:27:46;18.40;99.90
15235;DHT22;7720;51.926;4.488;2023-07-31T09:33:00;18.40;99.90
15235;DHT22;7720;51.926;4.488;2023-07-31T09:38:05;18.50;99.90
15235;DHT22;7720;51.926;4.488;2023-07-31T09:43:10;18.50;99.90
15235;DHT22;7720;51.926;4.488;2023-07-31T09:48:17;18.60;99.90
15235;DHT22;7720;51.926;4.488;2023-07-31T09:53:28;18.60;99.90
15235;DHT22;7720;51.926;4.488;2023-07-31T09:58:34;18.60;99.90
15235;DHT22;7720;51.926;4.488;2023-07-31T10:03:39;18.10;99.90
15235;DHT22;7720;51.926;4.488;2023-07-31T10:08:43;18.60;99.90
15235;DHT22;7720;51.926;4.488;2023-07-31T10:13:49;18.70;99.90
15235;DHT22;7720;51.926;4.488;2023-07-31T10:18:54;18.60;99.90
15235;DHT22;7720;51.926;4.488;2023-07-31T10:23:58;18.60;99.90
15235;DHT22;7720;51.926;4.488;2023-07-31T10:29:02;18.70;99.90
15235;DHT22;7720;51.926;4.488;2023-07-31T10:34:07;18.70;99.90
15235;DHT22;7720;51.926;4.488;2023-07-31T10:39:35;18.80;99.90
15235;DHT22;7720;51.926;4.488;2023-07-31T10:44:43;18.80;99.90
15235;DHT22;7720;51.926;4.488;2023-07-31T10:49:48;18.90;99.90
15235;DHT22;7720;51.926;4.488;2023-07-31T11:00:34;19.00;99.90
15235;DHT22;7720;51.926;4.488;2023-07-31T11:06:02;19.00;99.90
15235;DHT22;7720;51.926;4.488;2023-07-31T11:11:07;19.20;99.90
15235;DHT22;7720;51.926;4.488;2023-07-31T11:16:12;19.20;99.90
15235;DHT22;7720;51.926;4.488;2023-07-31T11:21:19;19.20;99.90
15235;DHT22;7720;51.926;4.488;2023-07-31T11:26:24;19.30;99.90
15235;DHT22;7720;51.926;4.488;2023-07-31T11:31:27;19.40;99.90
15235;DHT22;7720;51.926;4.488;2023-07-31T11:36:32;19.50;99.90
15235;DHT22;7720;51.926;4.488;2023-07-31T11:41:35;19.60;99.90
15235;DHT22;7720;51.926;4.488;2023-07-31T11:46:39;19.50;99.90
15235;DHT22;7720;51.926;4.488;2023-07-31T11:51:44;19.60;99.90
15235;DHT22;7720;51.926;4.488;2023-07-31T11:56:48;19.70;99.90
15235;DHT22;7720;51.926;4.488;2023-07-31T12:01:52;19.70;99.90
15235;DHT22;7720;51.926;4.488;2023-07-31T12:07:00;19.70;99.90
15235;DHT22;7720;51.926;4.488;2023-07-31T12:12:08;19.90;99.90
15235;DHT22;7720;51.926;4.488;2023-07-31T12:17:11;19.70;99.90
15235;DHT22;7720;51.926;4.488;2023-07-31T12:22:16;20.60;99.90
15235;DHT22;7720;51.926;4.488;2023-07-31T12:27:19;19.70;99.90
15235;DHT22;7720;51.926;4.488;2023-07-31T12:32:30;19.70;99.90
15235;DHT22;7720;51.926;4.488;2023-07-31T12:37:36;19.80;99.90
15235;DHT22;7720;51.926;4.488;2023-07-31T12:42:41;19.80;99.90
15235;DHT22;7720;51.926;4.488;2023-07-31T12:47:44;19.90;99.90
15235;DHT22;7720;51.926;4.488;2023-07-31T12:52:49;19.80;99.90
15235;DHT22;7720;51.926;4.488;2023-07-31T12:57:52;19.60;99.90
15235;DHT22;7720;51.926;4.488;2023-07-31T13:02:57;19.70;99.90
15235;DHT22;7720;51.926;4.488;2023-07-31T13:08:02;19.80;99.90
15235;DHT22;7720;51.926;4.488;2023-07-31T13:13:05;19.90;99.90
15235;DHT22;7720;51.926;4.488;2023-07-31T13:18:09;19.90;99.90
15235;DHT22;7720;51.926;4.488;2023-07-31T13:23:13;19.80;99.90
15235;DHT22;7720;51.926;4.488;2023-07-31T13:28:17;19.80;99.90
15235;DHT22;7720;51.926;4.488;2023-07-31T13:33:20;19.80;99.90
15235;DHT22;7720;51.926;4.488;2023-07-31T13:38:39;19.90;99.90
15235;DHT22;7720;51.926;4.488;2023-07-31T13:43:43;19.90;99.90
15235;DHT22;7720;51.926;4.488;2023-07-31T13:48:46;19.90;99.90
15235;DHT22;7720;51.926;4.488;2023-07-31T13:53:51;19.90;99.90
15235;DHT22;7720;51.926;4.488;2023-07-31T13:58:54;19.90;99.90
15235;DHT22;7720;51.926;4.488;2023-07-31T14:03:58;19.90;99.90
15235;DHT22;7720;51.926;4.488;2023-07-31T14:09:03;19.90;99.90
15235;DHT22;7720;51.926;4.488;2023-07-31T14:14:06;19.90;99.90
15235;DHT22;7720;51.926;4.488;2023-07-31T14:19:09;20.00;99.90
15235;DHT22;7720;51.926;4.488;2023-07-31T14:24:14;19.90;99.90
15235;DHT22;7720;51.926;4.488;2023-07-31T14:29:18;19.90;99.90
15235;DHT22;7720;51.926;4.488;2023-07-31T14:34:21;19.80;99.90
15235;DHT22;7720;51.926;4.488;2023-07-31T14:39:26;19.90;99.90
15235;DHT22;7720;51.926;4.488;2023-07-31T14:44:29;19.90;99.90
15235;DHT22;7720;51.926;4.488;2023-07-31T14:49:32;19.90;99.90
15235;DHT22;7720;51.926;4.488;2023-07-31T14:54:37;19.60;99.90
15235;DHT22;7720;51.926;4.488;2023-07-31T14:59:40;19.60;99.90
15235;DHT22;7720;51.926;4.488;2023-07-31T15:04:44;19.60;99.90
15235;DHT22;7720;51.926;4.488;2023-07-31T15:09:48;19.70;99.90
15235;DHT22;7720;51.926;4.488;2023-07-31T15:14:51;19.70;99.90
15235;DHT22;7720;51.926;4.488;2023-07-31T15:19:55;19.80;99.90
15235;DHT22;7720;51.926;4.488;2023-07-31T15:25:00;19.50;99.90
15235;DHT22;7720;51.926;4.488;2023-07-31T15:30:03;19.60;99.90
15235;DHT22;7720;51.926;4.488;2023-07-31T15:35:08;19.60;99.90
15235;DHT22;7720;51.926;4.488;2023-07-31T15:40:13;19.70;99.90
15235;DHT22;7720;51.926;4.488;2023-07-31T15:45:16;19.70;99.90
15235;DHT22;7720;51.926;4.488;2023-07-31T15:50:19;19.70;99.90
15235;DHT22;7720;51.926;4.488;2023-07-31T15:55:24;19.70;99.90
15235;DHT22;7720;51.926;4.488;2023-07-31T16:00:27;19.70;99.90
15235;DHT22;7720;51.926;4.488;2023-07-31T16:05:31;19.80;99.90
15235;DHT22;7720;51.926;4.488;2023-07-31T16:10:35;19.70;99.90
15235;DHT22;7720;51.926;4.488;2023-07-31T16:15:39;19.70;99.90
15235;DHT22;7720;51.926;4.488;2023-07-31T16:20:42;19.70;99.90
15235;DHT22;7720;51.926;4.488;2023-07-31T16:25:47;19.60;99.90
15235;DHT22;7720;51.926;4.488;2023-07-31T16:30:50;19.60;99.90
15235;DHT22;7720;51.926;4.488;2023-07-31T16:35:54;19.60;99.90
15235;DHT22;7720;51.926;4.488;2023-07-31T16:40:58;19.60;99.90
15235;DHT22;7720;51.926;4.488;2023-07-31T16:46:02;19.80;99.90
15235;DHT22;7720;51.926;4.488;2023-07-31T16:51:05;19.80;99.90
15235;DHT22;7720;51.926;4.488;2023-07-31T16:56:10;19.90;99.90
15235;DHT22;7720;51.926;4.488;2023-07-31T17:01:13;19.80;99.90
15235;DHT22;7720;51.926;4.488;2023-07-31T17:06:16;19.80;99.90
15235;DHT22;7720;51.926;4.488;2023-07-31T17:11:21;19.80;99.90
15235;DHT22;7720;51.926;4.488;2023-07-31T17:16:25;19.80;99.90
15235;DHT22;7720;51.926;4.488;2023-07-31T17:21:31;19.80;99.90
15235;DHT22;7720;51.926;4.488;2023-07-31T17:26:35;19.70;99.90
15235;DHT22;7720;51.926;4.488;2023-07-31T17:31:39;19.70;99.90
15235;DHT22;7720;51.926;4.488;2023-07-31T17:36:43;19.50;99.90
15235;DHT22;7720;51.926;4.488;2023-07-31T17:41:48;19.50;99.90
15235;DHT22;7720;51.926;4.488;2023-07-31T17:46:51;19.50;99.90
15235;DHT22;7720;51.926;4.488;2023-07-31T17:51:55;19.50;99.90
15235;DHT22;7720;51.926;4.488;2023-07-31T17:56:59;19.50;99.90
15235;DHT22;7720;51.926;4.488;2023-07-31T18:02:03;19.70;99.90
15235;DHT22;7720;51.926;4.488;2023-07-31T18:07:07;19.50;99.90
15235;DHT22;7720;51.926;4.488;2023-07-31T18:12:11;19.50;99.90
15235;DHT22;7720;51.926;4.488;2023-07-31T18:17:15;19.20;99.90
15235;DHT22;7720;51.926;4.488;2023-07-31T18:22:18;18.90;99.90
15235;DHT22;7720;51.926;4.488;2023-07-31T18:27:23;18.70;99.90
15235;DHT22;7720;51.926;4.488;2023-07-31T18:32:26;18.80;99.90
15235;DHT22;7720;51.926;4.488;2023-07-31T18:37:30;19.00;99.90
15235;DHT22;7720;51.926;4.488;2023-07-31T18:42:34;19.10;99.90
15235;DHT22;7720;51.926;4.488;2023-07-31T18:47:38;19.20;99.90
15235;DHT22;7720;51.926;4.488;2023-07-31T18:52:41;19.20;99.90
15235;DHT22;7720;51.926;4.488;2023-07-31T18:57:46;18.90;99.90
15235;DHT22;7720;51.926;4.488;2023-07-31T19:02:49;18.80;99.90
15235;DHT22;7720;51.926;4.488;2023-07-31T19:07:53;18.80;99.90
15235;DHT22;7720;51.926;4.488;2023-07-31T19:12:59;18.70;99.90
15235;DHT22;7720;51.926;4.488;2023-07-31T19:18:03;18.70;99.90
15235;DHT22;7720;51.926;4.488;2023-07-31T19:23:06;18.60;99.90
15235;DHT22;7720;51.926;4.488;2023-07-31T19:28:11;18.60;99.90
15235;DHT22;7720;51.926;4.488;2023-07-31T19:33:15;18.40;99.90
15235;DHT22;7720;51.926;4.488;2023-07-31T19:38:20;18.40;99.90
15235;DHT22;7720;51.926;4.488;2023-07-31T19:43:25;18.50;99.90
15235;DHT22;7720;51.926;4.488;2023-07-31T19:48:28;18.40;99.90
15235;DHT22;7720;51.926;4.488;2023-07-31T19:53:31;18.40;99.90
15235;DHT22;7720;51.926;4.488;2023-07-31T19:58:37;18.40;99.90
15235;DHT22;7720;51.926;4.488;2023-07-31T20:03:42;18.30;99.90
15235;DHT22;7720;51.926;4.488;2023-07-31T20:08:45;18.40;99.90
15235;DHT22;7720;51.926;4.488;2023-07-31T20:13:50;18.40;99.90
15235;DHT22;7720;51.926;4.488;2023-07-31T20:18:53;18.30;99.90
15235;DHT22;7720;51.926;4.488;2023-07-31T20:23:57;18.20;99.90
15235;DHT22;7720;51.926;4.488;2023-07-31T20:29:02;18.20;99.90
15235;DHT22;7720;51.926;4.488;2023-07-31T20:34:05;18.10;99.90
15235;DHT22;7720;51.926;4.488;2023-07-31T20:39:13;18.10;99.90
15235;DHT22;7720;51.926;4.488;2023-07-31T20:44:19;18.10;99.90
15235;DHT22;7720;51.926;4.488;2023-07-31T20:49:23;18.00;99.90
15235;DHT22;7720;51.926;4.488;2023-07-31T20:54:26;18.00;99.90
15235;DHT22;7720;51.926;4.488;2023-07-31T20:59:31;18.00;99.90
15235;DHT22;7720;51.926;4.488;2023-07-31T21:04:34;18.00;99.90
15235;DHT22;7720;51.926;4.488;2023-07-31T21:09:39;18.00;99.90
15235;DHT22;7720;51.926;4.488;2023-07-31T21:14:44;18.10;99.90
15235;DHT22;7720;51.926;4.488;2023-07-31T21:19:47;18.10;99.90
15235;DHT22;7720;51.926;4.488;2023-07-31T21:24:52;18.10;99.90
15235;DHT22;7720;51.926;4.488;2023-07-31T21:29:56;18.10;99.90
15235;DHT22;7720;51.926;4.488;2023-07-31T21:35:01;18.10;99.90
15235;DHT22;7720;51.926;4.488;2023-07-31T21:40:06;18.10;99.90
15235;DHT22;7720;51.926;4.488;2023-07-31T21:45:11;18.10;99.90
15235;DHT22;7720;51.926;4.488;2023-07-31T21:50:14;18.20;99.90
15235;DHT22;7720;51.926;4.488;2023-07-31T21:55:18;18.10;99.90
15235;DHT22;7720;51.926;4.488;2023-07-31T22:00:22;18.20;99.90
15235;DHT22;7720;51.926;4.488;2023-07-31T22:05:26;18.20;99.90
15235;DHT22;7720;51.926;4.488;2023-07-31T22:10:29;18.10;99.90
15235;DHT22;7720;51.926;4.488;2023-07-31T22:15:34;18.10;99.90
